Time;durP1;ratioP1;P1;durP2;ratioP2;P2;SDS_P1;SDS_P2;PMS_P1;PMS_P2;Temp;Humidity;BMP_temperature;BMP_pressure;BME280_temperature;BME280_humidity;BME280_pressure;Samples;Min_cycle;Max_cycle;Signal;HPM_P1;HPM_P2
2022/10/23 00:01:22;;;;;;;;;;;;;;;12.38;70.10;100972.28;5036660;28;19958;-29
2022/10/23 00:03:49;;;;;;;;;;;;;;;12.37;70.30;100979.31;5032855;28;19944;-29
2022/10/23 00:06:14;;;;;;;;;;;;;;;12.35;70.29;100974.94;5026573;28;20437;-29
2022/10/23 00:08:40;;;;;;;;;;;;;;;12.34;70.09;100974.06;5038315;28;19999;-29
2022/10/23 00:11:09;;;;;;;;;;;;;;;12.32;70.18;100981.16;5025016;28;20366;-29
2022/10/23 00:13:34;;;;;;;;;;;;;;;12.29;70.09;100975.91;5031703;28;19917;-29
2022/10/23 00:16:00;;;;;;;;;;;;;;;12.29;70.20;100981.19;5035926;28;20266;-29
2022/10/23 00:18:25;;;;;;;;;;;;;;;12.29;70.00;100983.84;5031703;28;19955;-29
2022/10/23 00:20:50;;;;;;;;;;;;;;;12.27;70.26;100983.84;5032298;28;20194;-29
2022/10/23 00:23:15;;;;;;;;;;;;;;;12.25;70.15;100990.94;5036696;28;19913;-29
2022/10/23 00:25:41;;;;;;;;;;;;;;;12.24;70.06;100991.81;5032471;28;21089;-29
2022/10/23 00:28:06;;;;;;;;;;;;;;;12.21;70.08;100991.88;5039380;28;19920;-29
2022/10/23 00:30:31;;;;;;;;;;;;;;;12.22;70.19;100988.31;5032093;28;19986;-29
2022/10/23 00:32:56;;;;;;;;;;;;;;;12.21;70.20;100988.34;5038736;28;20397;-29
2022/10/23 00:35:21;;;;;;;;;;;;;;;12.17;70.04;100980.44;5032740;28;20374;-29
2022/10/23 00:37:47;;;;;;;;;;;;;;;12.15;69.92;100990.16;5036059;28;19956;-29
2022/10/23 00:40:12;;;;;;;;;;;;;;;12.14;70.37;100985.75;5038576;28;20019;-29
2022/10/23 00:42:37;;;;;;;;;;;;;;;12.14;70.26;100985.75;5031269;28;20534;-29
2022/10/23 00:45:11;;;;;;;;;;;;;;;12.13;70.25;100989.28;5040209;28;20381;-29
2022/10/23 00:47:36;;;;;;;;;;;;;;;12.12;70.20;100997.22;5031274;28;19913;-29
2022/10/23 00:50:01;;;;;;;;;;;;;;;12.08;70.17;100996.41;5035825;28;20355;-29
2022/10/23 00:52:26;;;;;;;;;;;;;;;12.07;70.54;101005.19;5034617;28;19917;-29
2022/10/23 00:54:51;;;;;;;;;;;;;;;12.05;70.35;101007.84;5018339;28;20007;-29
2022/10/23 00:57:17;;;;;;;;;;;;;;;12.03;70.53;101008.75;5029467;28;19952;-29
2022/10/23 00:59:42;;;;;;;;;;;;;;;12.02;70.32;101007.00;5035325;28;19913;-29
2022/10/23 01:02:07;;;;;;;;;;;;;;;12.02;70.23;100993.78;5031268;28;20277;-29
2022/10/23 01:04:33;;;;;;;;;;;;;;;12.01;70.29;100998.19;5010549;28;20281;-29
2022/10/23 01:07:02;;;;;;;;;;;;;;;12.01;70.69;100994.69;5027334;28;19913;-29
2022/10/23 01:09:59;;;;;;;;;;;;;;;11.98;70.36;100995.59;5005590;28;19913;-29
2022/10/23 01:12:31;;;;;;;;;;;;;;;11.96;70.27;100986.78;5001027;28;19917;-29
2022/10/23 01:15:05;;;;;;;;;;;;;;;11.93;70.57;100986.81;5021740;28;19939;-29
2022/10/23 01:17:49;;;;;;;;;;;;;;;11.92;70.44;100982.41;5017018;28;19924;-29
2022/10/23 01:20:23;;;;;;;;;;;;;;;11.90;70.78;100976.25;5031017;28;19918;-29
2022/10/23 01:23:00;;;;;;;;;;;;;;;11.88;70.78;100978.94;5026542;28;19917;-29
2022/10/23 01:25:37;;;;;;;;;;;;;;;11.85;70.77;100989.53;5030448;28;19923;-29
2022/10/23 01:28:04;;;;;;;;;;;;;;;11.86;70.57;100987.75;5020013;28;19916;-29
2022/10/23 01:30:29;;;;;;;;;;;;;;;11.84;70.60;100979.84;5011465;28;19952;-29
2022/10/23 01:32:59;;;;;;;;;;;;;;;11.84;70.87;100987.75;5033181;28;19960;-29
2022/10/23 01:35:27;;;;;;;;;;;;;;;11.80;70.92;100986.94;5014904;28;19921;-29
2022/10/23 01:37:57;;;;;;;;;;;;;;;11.79;70.69;100989.59;5032473;28;19921;-29
2022/10/23 01:40:24;;;;;;;;;;;;;;;11.78;70.96;100993.97;5028907;28;20398;-29
2022/10/23 01:42:50;;;;;;;;;;;;;;;11.77;70.98;100983.47;5024397;28;20366;-29
2022/10/23 01:45:18;;;;;;;;;;;;;;;11.75;70.97;100985.22;5033986;28;19921;-29
2022/10/23 01:47:43;;;;;;;;;;;;;;;11.75;71.13;100982.56;5030469;28;19913;-29
2022/10/23 01:50:08;;;;;;;;;;;;;;;11.75;70.96;100978.19;5028977;28;19971;-29
2022/10/23 01:52:34;;;;;;;;;;;;;;;11.74;70.76;100964.97;5026561;28;19972;-29
2022/10/23 01:54:59;;;;;;;;;;;;;;;11.73;70.79;100963.22;5018951;28;19913;-29
2022/10/23 01:57:25;;;;;;;;;;;;;;;11.74;71.03;100959.69;5034677;28;19996;-29
2022/10/23 01:59:51;;;;;;;;;;;;;;;11.73;71.01;100966.72;5030070;28;19913;-29
2022/10/23 02:02:16;;;;;;;;;;;;;;;11.72;71.05;100969.38;5023895;28;20369;-29
2022/10/23 02:04:46;;;;;;;;;;;;;;;11.70;70.81;100961.47;5044759;28;20011;-29
2022/10/23 02:07:12;;;;;;;;;;;;;;;11.70;70.74;100964.13;5014251;28;19962;-29
2022/10/23 02:09:37;;;;;;;;;;;;;;;11.70;70.62;100968.53;5031937;28;19996;-29
2022/10/23 02:12:09;;;;;;;;;;;;;;;11.67;71.11;100953.56;5031328;28;20007;-29
2022/10/23 02:14:54;;;;;;;;;;;;;;;11.66;71.03;100958.00;5013395;28;19923;-29
2022/10/23 02:17:19;;;;;;;;;;;;;;;11.65;70.88;100950.09;5009383;28;20298;-29
2022/10/23 02:19:46;;;;;;;;;;;;;;;11.65;70.95;100950.97;5029876;28;19913;-29
2022/10/23 02:22:13;;;;;;;;;;;;;;;11.61;70.94;100949.22;5018205;28;19913;-29
2022/10/23 02:24:43;;;;;;;;;;;;;;;11.61;71.02;100941.28;5019610;28;19913;-29
2022/10/23 02:27:12;;;;;;;;;;;;;;;11.59;70.92;100936.91;5029359;28;19916;-29
2022/10/23 02:29:39;;;;;;;;;;;;;;;11.57;71.10;100936.06;5036861;28;19924;-29
2022/10/23 02:32:05;;;;;;;;;;;;;;;11.57;70.89;100934.28;5016104;28;20309;-29
2022/10/23 02:34:30;;;;;;;;;;;;;;;11.57;71.08;100926.38;5012369;28;19913;-29
2022/10/23 02:36:56;;;;;;;;;;;;;;;11.55;70.88;100934.28;5025645;28;19917;-29
2022/10/23 02:39:21;;;;;;;;;;;;;;;11.54;71.00;100932.56;5030899;28;20008;-29
2022/10/23 02:41:48;;;;;;;;;;;;;;;11.53;71.03;100940.50;5030306;28;19995;-29
2022/10/23 02:44:32;;;;;;;;;;;;;;;11.51;70.93;100937.84;5017450;28;19913;-29
2022/10/23 02:47:16;;;;;;;;;;;;;;;11.51;70.83;100937.00;5034635;28;20005;-29
2022/10/23 02:49:42;;;;;;;;;;;;;;;11.47;70.99;100936.13;5029605;28;19967;-29
2022/10/23 02:52:07;;;;;;;;;;;;;;;11.48;70.88;100929.09;5023755;28;19917;-29
2022/10/23 02:54:51;;;;;;;;;;;;;;;11.47;71.11;100936.13;5023990;28;19914;-29
2022/10/23 02:57:22;;;;;;;;;;;;;;;11.46;71.11;100934.41;5032012;28;19924;-29
2022/10/23 02:59:51;;;;;;;;;;;;;;;11.44;71.09;100935.31;5036172;28;19963;-29
2022/10/23 03:02:20;;;;;;;;;;;;;;;11.44;71.28;100930.88;5016135;28;19912;-29
2022/10/23 03:04:46;;;;;;;;;;;;;;;11.42;70.76;100930.03;5015869;28;20016;-29
2022/10/23 03:07:11;;;;;;;;;;;;;;;11.40;71.17;100929.16;5016697;28;20024;-29
2022/10/23 03:09:37;;;;;;;;;;;;;;;11.38;70.94;100929.19;5036980;28;21803;-29
2022/10/23 03:12:02;;;;;;;;;;;;;;;11.37;70.88;100927.41;5019310;28;20315;-29
2022/10/23 03:14:27;;;;;;;;;;;;;;;11.35;71.13;100923.94;5033272;28;20329;-29
2022/10/23 03:16:52;;;;;;;;;;;;;;;11.33;70.99;100916.91;5038735;28;19917;-29
2022/10/23 03:19:17;;;;;;;;;;;;;;;11.32;71.06;100926.59;5033003;28;19941;-29
2022/10/23 03:21:43;;;;;;;;;;;;;;;11.31;70.67;100932.78;5031658;28;20390;-29
2022/10/23 03:24:08;;;;;;;;;;;;;;;11.28;70.76;100930.16;5013316;28;19917;-29
2022/10/23 03:26:33;;;;;;;;;;;;;;;11.29;70.62;100926.59;5032250;28;19913;-29
2022/10/23 03:28:58;;;;;;;;;;;;;;;11.28;70.95;100933.66;5038850;28;20353;-29
2022/10/23 03:31:23;;;;;;;;;;;;;;;11.27;70.61;100933.69;5035481;28;20378;-29
2022/10/23 03:33:49;;;;;;;;;;;;;;;11.26;70.77;100924.00;5041755;28;20362;-29
2022/10/23 03:36:14;;;;;;;;;;;;;;;11.24;70.35;100918.72;5033364;28;19917;-29
2022/10/23 03:38:39;;;;;;;;;;;;;;;11.23;70.68;100926.66;5036456;28;20397;-29
2022/10/23 03:41:04;;;;;;;;;;;;;;;11.22;70.29;100930.19;5032722;28;20370;-29
2022/10/23 03:43:30;;;;;;;;;;;;;;;11.18;70.49;100928.47;5037220;28;20311;-29
2022/10/23 03:45:55;;;;;;;;;;;;;;;11.18;70.60;100923.19;5036827;28;19924;-29
2022/10/23 03:48:22;;;;;;;;;;;;;;;11.16;70.60;100918.78;5038420;28;20582;-29
2022/10/23 03:50:48;;;;;;;;;;;;;;;11.15;70.40;100924.09;5035781;28;19913;-29
2022/10/23 03:53:13;;;;;;;;;;;;;;;11.12;70.46;100911.78;5032802;28;20266;-29
2022/10/23 03:55:38;;;;;;;;;;;;;;;11.12;70.66;100918.81;5029466;28;19914;-29
2022/10/23 03:58:03;;;;;;;;;;;;;;;11.09;70.28;100919.72;5036490;28;20007;-29
2022/10/23 04:00:29;;;;;;;;;;;;;;;11.08;70.19;100919.72;5029570;28;19913;-29
2022/10/23 04:02:54;;;;;;;;;;;;;;;11.07;70.59;100925.91;5023716;28;19924;-29
2022/10/23 04:05:19;;;;;;;;;;;;;;;11.06;70.30;100918.84;5032983;28;19913;-29
2022/10/23 04:07:44;;;;;;;;;;;;;;;11.02;70.49;100918.91;5030064;28;19923;-29
2022/10/23 04:10:09;;;;;;;;;;;;;;;11.01;70.25;100922.41;5032221;28;20121;-29
2022/10/23 04:12:35;;;;;;;;;;;;;;;10.98;70.59;100914.53;5026851;28;19913;-29
2022/10/23 04:15:00;;;;;;;;;;;;;;;10.95;70.47;100911.03;5035713;28;19996;-29
2022/10/23 04:17:25;;;;;;;;;;;;;;;10.95;70.15;100913.66;5028269;28;19964;-29
2022/10/23 04:19:50;;;;;;;;;;;;;;;10.93;70.46;100916.31;5031621;28;20286;-29
2022/10/23 04:22:16;;;;;;;;;;;;;;;10.90;70.26;100924.25;5032010;28;19935;-29
2022/10/23 04:24:45;;;;;;;;;;;;;;;10.88;70.63;100921.59;5033401;28;19913;-29
2022/10/23 04:27:10;;;;;;;;;;;;;;;10.85;70.76;100920.75;5030961;28;19913;-29
2022/10/23 04:29:35;;;;;;;;;;;;;;;10.84;70.37;100919.03;5038418;28;19924;-29
2022/10/23 04:32:01;;;;;;;;;;;;;;;10.83;70.52;100914.59;5033568;28;19920;-29
2022/10/23 04:34:26;;;;;;;;;;;;;;;10.80;70.41;100923.41;5035315;28;19920;-29
2022/10/23 04:36:51;;;;;;;;;;;;;;;10.76;70.76;100919.94;5028035;28;20306;-29
2022/10/23 04:39:16;;;;;;;;;;;;;;;10.75;70.46;100914.66;5032893;28;19967;-29
2022/10/23 04:41:42;;;;;;;;;;;;;;;10.74;70.79;100908.50;5028041;28;19919;-29
2022/10/23 04:44:07;;;;;;;;;;;;;;;10.73;70.69;100906.75;5030372;28;20358;-29
2022/10/23 04:46:32;;;;;;;;;;;;;;;10.71;70.83;100903.25;5020420;28;20277;-29
2022/10/23 04:48:57;;;;;;;;;;;;;;;10.70;70.72;100900.63;5026762;28;19919;-29
2022/10/23 04:51:22;;;;;;;;;;;;;;;10.67;70.45;100909.41;5031257;28;19958;-29
2022/10/23 04:53:48;;;;;;;;;;;;;;;10.67;70.28;100911.19;5034495;28;19994;-29
2022/10/23 04:56:14;;;;;;;;;;;;;;;10.64;70.36;100920.00;5032205;28;20015;-29
2022/10/23 04:58:39;;;;;;;;;;;;;;;10.61;70.46;100918.25;5027508;28;19992;-29
2022/10/23 05:01:06;;;;;;;;;;;;;;;10.60;70.22;100920.91;5022249;28;20332;-29
2022/10/23 05:03:31;;;;;;;;;;;;;;;10.58;70.71;100918.28;5024783;28;19917;-29
2022/10/23 05:05:56;;;;;;;;;;;;;;;10.57;70.72;100921.78;5028120;28;19978;-29
2022/10/23 05:08:22;;;;;;;;;;;;;;;10.55;70.68;100923.56;5013779;28;20243;-29
2022/10/23 05:10:48;;;;;;;;;;;;;;;10.53;70.78;100912.13;5026606;28;19917;-29
2022/10/23 05:13:14;;;;;;;;;;;;;;;10.51;70.44;100906.00;5025711;28;19958;-29
2022/10/23 05:15:39;;;;;;;;;;;;;;;10.50;70.65;100901.59;5028106;28;19948;-29
2022/10/23 05:18:08;;;;;;;;;;;;;;;10.45;70.77;100898.13;5029375;28;20464;-29
2022/10/23 05:20:33;;;;;;;;;;;;;;;10.45;70.54;100892.84;5028960;28;19913;-29
2022/10/23 05:22:58;;;;;;;;;;;;;;;10.42;70.87;100887.56;5019305;28;19913;-29
2022/10/23 05:25:24;;;;;;;;;;;;;;;10.39;70.82;100894.59;5034649;28;19927;-29
2022/10/23 05:27:49;;;;;;;;;;;;;;;10.38;70.82;100898.09;5026983;28;20743;-29
2022/10/23 05:30:14;;;;;;;;;;;;;;;10.36;70.49;100896.38;5032886;28;20433;-29
2022/10/23 05:32:39;;;;;;;;;;;;;;;10.36;70.82;100896.38;5031329;28;20480;-29
2022/10/23 05:35:06;;;;;;;;;;;;;;;10.34;70.69;100892.88;5030223;28;19916;-29
2022/10/23 05:37:31;;;;;;;;;;;;;;;10.32;70.85;100884.97;5032145;28;19925;-29
2022/10/23 05:39:56;;;;;;;;;;;;;;;10.32;70.68;100884.97;5033516;28;19919;-29
2022/10/23 05:42:21;;;;;;;;;;;;;;;10.30;70.68;100870.91;5018989;28;20084;-29
2022/10/23 05:44:47;;;;;;;;;;;;;;;10.29;70.79;100877.06;5025507;28;19909;-29
2022/10/23 05:47:12;;;;;;;;;;;;;;;10.26;70.53;100874.44;5026582;28;20114;-29
2022/10/23 05:49:37;;;;;;;;;;;;;;;10.25;70.69;100875.34;5030927;28;19967;-29
2022/10/23 05:52:02;;;;;;;;;;;;;;;10.25;70.73;100875.34;5028425;28;19913;-29
2022/10/23 05:54:28;;;;;;;;;;;;;;;10.22;70.96;100875.34;5026169;28;19913;-29
2022/10/23 05:56:54;;;;;;;;;;;;;;;10.20;70.59;100869.22;5030030;28;19963;-29
2022/10/23 05:59:19;;;;;;;;;;;;;;;10.20;70.84;100877.13;5037739;28;19974;-29
2022/10/23 06:01:44;;;;;;;;;;;;;;;10.18;70.70;100878.88;5028056;28;19925;-29
2022/10/23 06:04:09;;;;;;;;;;;;;;;10.17;70.62;100874.50;5020526;28;19921;-29
2022/10/23 06:06:35;;;;;;;;;;;;;;;10.15;70.83;100882.41;5028973;28;19920;-29
2022/10/23 06:09:01;;;;;;;;;;;;;;;10.14;70.85;100885.94;5032072;28;20000;-29
2022/10/23 06:11:26;;;;;;;;;;;;;;;10.12;70.75;100891.22;5025295;28;19924;-29
2022/10/23 06:13:51;;;;;;;;;;;;;;;10.12;71.10;100885.94;5028977;28;19999;-29
2022/10/23 06:16:17;;;;;;;;;;;;;;;10.10;70.76;100899.97;5032998;28;19912;-29
2022/10/23 06:18:43;;;;;;;;;;;;;;;10.08;71.04;100900.00;5025178;28;19917;-29
2022/10/23 06:21:08;;;;;;;;;;;;;;;10.08;71.11;100896.50;5030463;28;20202;-29
2022/10/23 06:23:34;;;;;;;;;;;;;;;10.06;70.98;100901.75;5026737;28;19974;-29
2022/10/23 06:25:59;;;;;;;;;;;;;;;10.05;71.19;100892.09;5031910;28;20370;-29
2022/10/23 06:28:24;;;;;;;;;;;;;;;10.02;71.19;100894.75;5022542;28;19928;-29
2022/10/23 06:30:50;;;;;;;;;;;;;;;10.02;71.07;100889.47;5005239;28;20046;-29
2022/10/23 06:33:15;;;;;;;;;;;;;;;10.01;71.43;100885.94;5024769;28;19913;-29
2022/10/23 06:35:40;;;;;;;;;;;;;;;10.00;71.26;100888.59;5031480;28;20295;-29
2022/10/23 06:38:07;;;;;;;;;;;;;;;9.99;71.48;100893.00;5029820;28;20390;-29
2022/10/23 06:40:33;;;;;;;;;;;;;;;10.00;71.53;100893.88;5034431;28;19920;-29
2022/10/23 06:42:58;;;;;;;;;;;;;;;9.99;71.45;100898.28;5020559;28;19909;-29
2022/10/23 06:45:23;;;;;;;;;;;;;;;9.99;71.79;100889.47;5032481;28;19917;-29
2022/10/23 06:47:49;;;;;;;;;;;;;;;10.00;71.82;100891.22;5025123;28;20373;-29
2022/10/23 06:50:14;;;;;;;;;;;;;;;10.01;71.62;100900.91;5026071;28;20298;-29
2022/10/23 06:52:39;;;;;;;;;;;;;;;9.99;71.78;100902.66;5036947;28;19913;-29
2022/10/23 06:55:05;;;;;;;;;;;;;;;10.01;71.69;100901.75;5017826;28;20764;-29
2022/10/23 06:57:30;;;;;;;;;;;;;;;10.00;71.93;100905.28;5031709;28;19917;-29
2022/10/23 06:59:55;;;;;;;;;;;;;;;10.02;72.11;100902.66;5029372;28;20043;-29
2022/10/23 07:02:20;;;;;;;;;;;;;;;10.03;72.52;100893.84;5026858;28;20023;-29
2022/10/23 07:04:46;;;;;;;;;;;;;;;10.04;72.90;100895.59;5031145;28;20350;-29
2022/10/23 07:07:11;;;;;;;;;;;;;;;10.05;73.46;100897.38;5015567;28;19913;-28
2022/10/23 07:09:36;;;;;;;;;;;;;;;10.03;73.51;100896.50;5017444;28;20281;-28
2022/10/23 07:12:01;;;;;;;;;;;;;;;10.04;74.27;100898.25;5031176;28;20297;-28
2022/10/23 07:14:29;;;;;;;;;;;;;;;10.04;74.42;100890.34;5025627;28;20165;-29
2022/10/23 07:16:54;;;;;;;;;;;;;;;10.05;74.26;100894.75;5027697;28;20807;-28
2022/10/23 07:19:20;;;;;;;;;;;;;;;10.06;74.19;100885.94;5008129;28;20460;-29
2022/10/23 07:21:45;;;;;;;;;;;;;;;10.08;74.43;100884.19;5031482;28;19921;-29
2022/10/23 07:24:10;;;;;;;;;;;;;;;10.09;74.41;100887.69;5031154;28;20007;-29
2022/10/23 07:26:36;;;;;;;;;;;;;;;10.11;74.06;100902.59;5035750;28;19921;-29
2022/10/23 07:29:01;;;;;;;;;;;;;;;10.12;74.19;100909.66;5030380;28;19917;-28
2022/10/23 07:31:26;;;;;;;;;;;;;;;10.15;74.00;100903.50;5032107;28;19909;-28
2022/10/23 07:33:51;;;;;;;;;;;;;;;10.16;73.70;100907.00;5033295;28;19913;-28
2022/10/23 07:36:17;;;;;;;;;;;;;;;10.16;74.12;100914.91;5030872;28;19917;-28
2022/10/23 07:38:42;;;;;;;;;;;;;;;10.17;74.06;100898.22;5026904;28;19912;-28
2022/10/23 07:41:08;;;;;;;;;;;;;;;10.21;74.35;100897.31;5038151;28;20005;-28
2022/10/23 07:43:34;;;;;;;;;;;;;;;10.22;73.91;100888.53;5029117;28;19920;-28
2022/10/23 07:45:59;;;;;;;;;;;;;;;10.25;73.93;100883.25;5032672;28;19920;-28
2022/10/23 07:48:27;;;;;;;;;;;;;;;10.28;73.90;100883.25;5020073;28;19917;-28
2022/10/23 07:50:56;;;;;;;;;;;;;;;10.32;73.52;100884.97;5030786;28;19913;-28
2022/10/23 07:53:22;;;;;;;;;;;;;;;10.35;73.49;100882.31;5031953;28;19921;-28
2022/10/23 07:55:54;;;;;;;;;;;;;;;10.38;72.80;100884.91;5034905;28;19944;-29
2022/10/23 07:58:20;;;;;;;;;;;;;;;10.42;72.85;100879.63;5022738;28;20382;-28
2022/10/23 08:00:50;;;;;;;;;;;;;;;10.45;72.87;100879.66;5014258;28;19917;-28
2022/10/23 08:03:17;;;;;;;;;;;;;;;10.47;72.82;100872.63;5026527;28;19917;-28
2022/10/23 08:05:42;;;;;;;;;;;;;;;10.48;72.50;100864.72;5023713;28;19944;-29
2022/10/23 08:08:08;;;;;;;;;;;;;;;10.49;72.84;100861.19;5020303;28;20000;-29
2022/10/23 08:10:33;;;;;;;;;;;;;;;10.52;72.55;100853.25;5031180;28;19912;-29
2022/10/23 08:12:58;;;;;;;;;;;;;;;10.55;72.54;100855.00;5030104;28;19909;-29
2022/10/23 08:15:24;;;;;;;;;;;;;;;10.57;72.44;100855.00;5028670;28;19917;-29
2022/10/23 08:17:49;;;;;;;;;;;;;;;10.59;72.72;100854.09;5030752;28;19971;-29
2022/10/23 08:20:14;;;;;;;;;;;;;;;10.63;72.73;100857.56;5029194;28;19936;-29
2022/10/23 08:22:40;;;;;;;;;;;;;;;10.67;72.49;100863.72;5026832;28;19921;-29
2022/10/23 08:25:05;;;;;;;;;;;;;;;10.69;72.70;100859.28;5030766;28;19917;-29
2022/10/23 08:27:31;;;;;;;;;;;;;;;10.72;72.41;100864.56;5028914;28;19913;-29
2022/10/23 08:29:56;;;;;;;;;;;;;;;10.75;72.73;100867.19;5029454;28;19956;-29
2022/10/23 08:32:21;;;;;;;;;;;;;;;10.80;72.41;100867.16;5024705;28;19913;-29
2022/10/23 08:34:47;;;;;;;;;;;;;;;10.83;72.45;100867.09;5033598;28;19983;-29
2022/10/23 08:37:12;;;;;;;;;;;;;;;10.86;72.73;100860.06;5014367;28;19925;-29
2022/10/23 08:39:37;;;;;;;;;;;;;;;10.89;72.87;100860.06;5030161;28;20362;-29
2022/10/23 08:42:03;;;;;;;;;;;;;;;10.92;72.46;100864.41;5022296;28;19921;-28
2022/10/23 08:44:30;;;;;;;;;;;;;;;10.97;72.79;100862.63;5024830;28;19920;-29
2022/10/23 08:47:01;;;;;;;;;;;;;;;11.00;72.49;100859.06;5025973;28;19913;-29
2022/10/23 08:49:45;;;;;;;;;;;;;;;11.04;72.53;100863.47;5027819;28;19921;-28
2022/10/23 08:52:16;;;;;;;;;;;;;;;11.10;73.19;100859.91;5028057;28;19921;-29
2022/10/23 08:55:00;;;;;;;;;;;;;;;11.13;73.61;100858.09;5029015;28;20381;-29
2022/10/23 08:57:32;;;;;;;;;;;;;;;11.23;77.12;100855.38;5026492;28;19988;-28
2022/10/23 08:59:59;;;;;;;;;;;;;;;11.32;79.87;100852.66;5021529;28;20338;-29
2022/10/23 09:02:29;;;;;;;;;;;;;;;11.41;83.23;100847.28;5025347;28;20005;-29
2022/10/23 09:04:55;;;;;;;;;;;;;;;11.57;85.81;100852.41;5024699;28;19920;-28
2022/10/23 09:07:20;;;;;;;;;;;;;;;11.71;87.66;100854.03;5015735;28;19917;-28
2022/10/23 09:10:12;;;;;;;;;;;;;;;11.89;89.40;100851.19;5027122;28;19958;-28
2022/10/23 09:12:38;;;;;;;;;;;;;;;11.94;89.27;100846.72;5027135;28;20314;-28
2022/10/23 09:15:14;;;;;;;;;;;;;;;12.05;89.55;100843.94;5028711;28;19913;-28
2022/10/23 09:17:40;;;;;;;;;;;;;;;12.27;90.71;100846.31;5028852;28;20031;-29
2022/10/23 09:20:13;;;;;;;;;;;;;;;12.49;93.23;100853.09;5022808;28;19917;-29
2022/10/23 09:22:38;;;;;;;;;;;;;;;12.70;95.16;100850.13;5022459;28;19936;-29
2022/10/23 09:25:07;;;;;;;;;;;;;;;12.75;93.97;100849.19;5008403;28;20277;-29
2022/10/23 09:27:33;;;;;;;;;;;;;;;12.92;94.12;100847.16;5024207;28;19913;-28
2022/10/23 09:29:58;;;;;;;;;;;;;;;13.08;94.26;100857.50;5025345;28;20417;-30
2022/10/23 09:32:34;;;;;;;;;;;;;;;13.21;94.01;100851.06;5023804;28;19920;-28
2022/10/23 09:34:59;;;;;;;;;;;;;;;13.35;93.67;100849.97;5006015;28;19947;-29
2022/10/23 09:37:29;;;;;;;;;;;;;;;13.49;92.88;100840.91;5024544;28;19992;-29
2022/10/23 09:40:24;;;;;;;;;;;;;;;13.52;89.42;100846.16;5024353;28;19921;-29
2022/10/23 09:43:00;;;;;;;;;;;;;;;13.72;89.53;100843.16;5026753;28;19913;-28
2022/10/23 09:45:27;;;;;;;;;;;;;;;13.90;89.71;100836.59;5014093;28;19924;-28
2022/10/23 09:48:13;;;;;;;;;;;;;;;14.11;91.22;100829.97;5034113;28;19961;-29
2022/10/23 09:50:57;;;;;;;;;;;;;;;14.27;91.37;100828.78;5031561;28;20006;-29
2022/10/23 09:53:42;;;;;;;;;;;;;;;14.41;90.31;100820.50;5027205;28;19917;-28
2022/10/23 09:56:24;;;;;;;5.20;3.35;;;;;;;14.37;86.04;100814.38;5027090;28;19913;-31
2022/10/23 09:58:55;;;;;;;;;;;;;;;14.37;83.04;100809.94;5027350;28;20045;-30
2022/10/23 10:01:32;;;;;;;4.90;3.05;;;;;;;14.41;81.64;100808.13;5031129;28;20362;-30
2022/10/23 10:03:58;;;;;;;5.63;3.30;;;;;;;14.45;80.75;100809.78;5026683;28;20041;-31
2022/10/23 10:06:29;;;;;;;4.65;2.92;;;;;;;14.52;80.44;100806.97;5028400;28;20022;-30
2022/10/23 10:08:57;;;;;;;4.47;3.00;;;;;;;14.55;80.03;100802.47;5023387;28;20026;-30
2022/10/23 10:11:34;;;;;;;4.40;2.88;;;;;;;14.59;79.83;100806.81;5017434;28;20086;-30
2022/10/23 10:14:12;;;;;;;6.03;3.00;;;;;;;14.66;79.56;100804.88;5034837;28;20115;-30
2022/10/23 10:16:49;;;;;;;4.32;2.50;;;;;;;14.73;79.22;100806.47;5028429;28;20044;-30
2022/10/23 10:19:30;;;;;;;4.07;2.40;;;;;;;14.79;79.10;100804.59;5031909;28;20375;-30
2022/10/23 10:22:11;;;;;;;3.50;2.17;;;;;;;14.86;79.36;100800.88;5024049;28;20503;-30
2022/10/23 10:24:53;;;;;;;4.13;2.10;;;;;;;14.93;79.39;100801.59;5024859;28;20115;-31
2022/10/23 10:27:25;;;;;;;3.58;2.30;;;;;;;14.99;79.46;100786.41;5015077;28;20033;-31
2022/10/23 10:29:54;;;;;;;3.58;2.22;;;;;;;15.05;79.25;100780.06;5018294;28;20482;-31
2022/10/23 10:32:38;;;;;;;4.53;2.35;;;;;;;15.14;79.26;100773.63;5023676;28;20045;-30
2022/10/23 10:35:26;;;;;;;4.63;2.22;;;;;;;15.22;79.00;100781.38;5009200;28;20029;-30
2022/10/23 10:38:00;;;;;;;4.18;2.20;;;;;;;15.30;79.33;100776.72;5021317;28;20065;-31
2022/10/23 10:40:33;;;;;;;3.17;2.22;;;;;;;15.37;79.17;100783.63;5026029;28;20057;-30
2022/10/23 10:43:14;;;;;;;3.70;2.22;;;;;;;15.46;79.77;100774.53;5025268;28;20382;-31
2022/10/23 10:45:47;;;;;;;2.80;1.73;;;;;;;15.56;79.58;100775.13;5020485;28;20127;-30
2022/10/23 10:48:31;;;;;;;3.53;2.13;;;;;;;15.67;79.45;100777.47;5020300;28;20025;-30
2022/10/23 10:51:10;;;;;;;4.50;1.80;;;;;;;15.80;80.55;100764.69;5021693;28;20043;-30
2022/10/23 10:53:57;;;;;;;3.78;1.67;;;;;;;15.89;79.83;100763.56;5006729;28;20483;-30
2022/10/23 10:56:27;;;;;;;2.95;1.70;;;;;;;15.97;79.29;100763.38;5031390;28;20036;-30
2022/10/23 10:59:02;;;;;;;3.42;1.73;;;;;;;16.03;78.89;100761.38;5015528;28;20029;-30
2022/10/23 11:01:39;;;;;;;3.45;1.60;;;;;;;16.11;78.76;100754.97;5030940;28;20025;-31
2022/10/23 11:04:31;;;;;;;3.67;1.67;;;;;;;16.18;78.62;100745.88;5036395;28;20024;-31
2022/10/23 11:06:58;;;;;;;2.55;1.40;;;;;;;16.26;78.92;100754.47;4995429;28;20097;-31
2022/10/23 11:09:27;;;;;;;2.65;1.70;;;;;;;16.34;78.63;100758.69;5025931;28;20470;-30
2022/10/23 11:11:53;;;;;;;2.47;1.60;;;;;;;16.39;78.47;100748.75;5032183;28;20029;-30
2022/10/23 11:14:22;;;;;;;3.05;1.67;;;;;;;16.47;78.27;100752.03;5034002;28;20028;-30
2022/10/23 11:17:12;;;;;;;3.38;1.50;;;;;;;16.53;78.12;100735.00;5029857;28;20041;-30
2022/10/23 11:20:02;;;;;;;2.10;1.40;;;;;;;16.61;77.96;100742.72;5019190;28;20038;-30
2022/10/23 11:22:31;;;;;;;4.10;1.67;;;;;;;16.69;77.95;100738.00;5024694;28;20099;-30
2022/10/23 11:24:56;;;;;;;3.40;1.60;;;;;;;16.76;77.77;100733.34;5035119;28;20033;-30
2022/10/23 11:27:30;;;;;;;2.40;1.60;;;;;;;16.83;77.96;100726.00;5025724;28;20044;-30
2022/10/23 11:30:16;;;;;;;2.75;1.70;;;;;;;16.89;77.50;100724.03;5024786;28;20043;-30
2022/10/23 11:33:00;;;;;;;;;;;;;;;16.96;76.98;100722.00;5025041;28;20044;-30
2022/10/23 11:35:31;;;;;;;;;;;;;;;17.05;76.66;100718.16;5023827;28;19921;-30
2022/10/23 11:37:57;;;;;;;;;;;;;;;17.09;76.47;100713.59;5028503;28;20370;-30
2022/10/23 11:40:23;;;;;;;;;;;;;;;17.13;76.21;100701.91;5030000;28;19917;-30
2022/10/23 11:42:48;;;;;;;;;;;;;;;17.18;76.12;100705.28;5019502;28;20404;-30
2022/10/23 11:45:31;;;;;;;;;;;;;;;17.22;76.03;100692.72;5019451;28;19916;-30
2022/10/23 11:48:16;;;;;;;;;;;;;;;17.24;76.17;100691.72;5029827;28;19921;-30
2022/10/23 11:50:45;;;;;;;;;;;;;;;17.26;75.59;100675.69;5029119;28;19912;-30
2022/10/23 11:53:24;;;;;;;;;;;;;;;17.29;75.21;100680.91;5030035;28;19917;-31
2022/10/23 11:56:22;;;;;;;;;;;;;;;17.30;74.93;100683.50;5031430;28;19912;-31
2022/10/23 11:58:48;;;;;;;;;;;;;;;17.33;74.99;100681.66;5032647;28;20282;-31
2022/10/23 12:01:16;;;;;;;;;;;;;;;17.33;74.97;100682.53;5029724;28;19919;-31
2022/10/23 12:03:52;;;;;;;;;;;;;;;17.34;74.58;100676.25;5031799;28;19913;-30
2022/10/23 12:06:20;;;;;;;;;;;;;;;17.36;74.69;100666.41;5022641;28;19917;-30
2022/10/23 12:08:48;;;;;;;;;;;;;;;17.38;74.30;100669.03;5029326;28;20374;-30
2022/10/23 12:11:40;;;;;;;;;;;;;;;17.41;74.23;100663.59;5003418;28;19917;-30
2022/10/23 12:14:11;;;;;;;;;;;;;;;17.42;74.58;100655.53;5031870;28;19913;-30
2022/10/23 12:16:37;;;;;;;;;;;;;;;17.45;74.42;100649.22;5033312;28;19909;-30
2022/10/23 12:19:12;;;;;;;;;;;;;;;17.48;73.74;100641.09;5034333;28;19916;-30
2022/10/23 12:21:37;;;;;;;;;;;;;;;17.50;73.88;100641.03;5015353;28;19913;-30
2022/10/23 12:24:22;;;;;;;;;;;;;;;17.51;73.87;100645.44;5031507;28;20511;-30
2022/10/23 12:26:49;;;;;;;;;;;;;;;17.52;74.00;100645.38;5033180;28;20147;-30
2022/10/23 12:29:29;;;;;;;;;;;;;;;17.53;73.97;100639.13;5033836;28;19970;-30
2022/10/23 12:31:58;;;;;;;;;;;;;;;17.54;73.73;100632.00;5032069;28;19954;-30
2022/10/23 12:34:42;;;;;;;;;;;;;;;17.55;72.94;100633.72;5033395;28;20003;-30
2022/10/23 12:37:10;;;;;;;;;;;;;;;17.55;73.25;100626.56;5032098;28;20033;-30